Time;durP1;ratioP1;P1;durP2;ratioP2;P2;SDS_P1;SDS_P2;PMS_P1;PMS_P2;Temp;Humidity;BMP_temperature;BMP_pressure;BME280_temperature;BME280_humidity;BME280_pressure;Samples;Min_cycle;Max_cycle;Signal;HPM_P1;HPM_P2
2021/09/30 00:01:27;;;;;;;25.55;14.98;;;;;;;4.39;100.00;101783.23;1752342;80;21568;-77
2021/09/30 00:03:53;;;;;;;27.55;13.55;;;;;;;4.38;100.00;101781.47;1778530;80;21065;-77
2021/09/30 00:06:20;;;;;;;25.17;14.60;;;;;;;4.41;100.00;101791.94;1751618;81;21357;-78
2021/09/30 00:08:48;;;;;;;28.00;14.83;;;;;;;4.43;100.00;101793.27;1751845;81;21092;-77
2021/09/30 00:11:20;;;;;;;24.92;14.18;;;;;;;4.43;100.00;101787.19;1751618;81;21112;-75
2021/09/30 00:13:49;;;;;;;25.25;14.13;;;;;;;4.45;100.00;101792.87;1751296;81;21127;-76
2021/09/30 00:47:58;;;;;;;28.00;14.85;;;;;;;4.91;100.00;101771.75;1718479;83;21053;-78
2021/09/30 00:55:59;;;;;;;24.70;13.30;;;;;;;4.98;100.00;101774.45;1718304;83;21030;-78
2021/09/30 01:18:26;;;;;;;27.17;15.50;;;;;;;5.02;100.00;101778.85;1708984;84;20943;-80
2021/09/30 02:23:57;;;;;;;14.35;7.87;;;;;;;2.92;100.00;101780.59;1774812;81;21061;-75
2021/09/30 02:28:47;;;;;;;19.17;10.93;;;;;;;2.83;100.00;101793.41;1755393;81;21015;-80
2021/09/30 02:59:04;;;;;;;22.07;12.15;;;;;;;2.39;100.00;101792.87;1715313;83;21771;-75
2021/09/30 03:01:28;;;;;;;23.12;12.35;;;;;;;2.33;100.00;101795.79;1745204;81;21564;-76
2021/09/30 03:03:56;;;;;;;22.73;12.55;;;;;;;2.27;100.00;101797.38;1765763;81;22259;-75
2021/09/30 03:06:24;;;;;;;21.17;11.60;;;;;;;2.22;100.00;101799.00;1765787;81;21584;-75
2021/09/30 03:08:54;;;;;;;21.33;12.23;;;;;;;2.19;100.00;101796.33;1718097;81;21105;-76
2021/09/30 03:11:22;;;;;;;27.73;12.27;;;;;;;2.18;100.00;101790.66;1777499;80;21110;-75
2021/09/30 03:13:50;;;;;;;28.92;13.03;;;;;;;2.17;100.00;101800.61;1752205;80;21135;-76
2021/09/30 03:16:33;;;;;;;26.00;13.70;;;;;;;2.13;100.00;101800.08;1782927;80;21591;-78
2021/09/30 03:18:51;;;;;;;26.50;12.58;;;;;;;2.11;100.00;101796.55;1780096;80;21051;-77
2021/09/30 03:23:46;;;;;;;24.00;11.85;;;;;;;2.04;100.00;101796.82;1745223;81;21133;-87
2021/09/30 03:26:15;;;;;;;23.40;12.40;;;;;;;2.00;100.00;101792.81;1752214;80;21022;-79
2021/09/30 03:28:45;;;;;;;21.60;11.48;;;;;;;1.97;100.00;101794.05;1752014;81;21025;-81
2021/09/30 03:31:11;;;;;;;23.67;12.85;;;;;;;1.94;100.00;101793.98;1780228;80;21020;-85
2021/09/30 03:33:40;;;;;;;22.90;11.63;;;;;;;1.93;100.00;101795.67;1783564;79;21103;-84
2021/09/30 03:36:10;;;;;;;23.30;12.63;;;;;;;1.90;100.00;101793.02;1757989;79;21096;-82
2021/09/30 03:38:38;;;;;;;20.50;12.43;;;;;;;1.87;100.00;101793.81;1756855;80;21013;-81
2021/09/30 03:41:05;;;;;;;17.67;8.38;;;;;;;1.81;100.00;101798.84;1771065;80;21057;-83
2021/09/30 03:43:32;;;;;;;22.15;11.55;;;;;;;1.81;100.00;101798.84;1744587;80;21065;-76
2021/09/30 03:45:59;;;;;;;28.83;13.03;;;;;;;1.82;100.00;101792.83;1767484;80;21071;-76
2021/09/30 03:48:27;;;;;;;28.45;13.43;;;;;;;1.79;100.00;101794.03;1782237;79;21131;-76
2021/09/30 03:51:20;;;;;;;28.70;12.47;;;;;;;1.78;100.00;101793.59;1783203;79;21567;-76
2021/09/30 03:53:56;;;;;;;25.50;12.73;;;;;;;1.74;100.00;101791.74;1782194;80;21044;-74
2021/09/30 04:01:33;;;;;;;29.57;12.85;;;;;;;1.70;100.00;101789.89;1758633;80;21063;-77
2021/09/30 04:03:59;;;;;;;26.90;13.45;;;;;;;1.68;100.00;101789.01;1768077;80;21570;-76
2021/09/30 04:06:26;;;;;;;25.70;13.53;;;;;;;1.64;100.00;101793.66;1741045;80;21114;-75
2021/09/30 04:08:56;;;;;;;39.00;14.68;;;;;;;1.64;100.00;101793.66;1749169;80;21528;-77
2021/09/30 04:11:20;;;;;;;26.87;14.53;;;;;;;1.65;100.00;101794.10;1773373;79;21076;-77
2021/09/30 04:13:49;;;;;;;28.92;15.98;;;;;;;1.65;100.00;101794.10;1765268;80;21025;-78
2021/09/30 04:16:17;;;;;;;30.80;15.70;;;;;;;1.64;100.00;101789.76;1776296;80;21022;-76
2021/09/30 04:18:44;;;;;;;28.98;15.03;;;;;;;1.69;100.00;101801.14;1752326;80;21532;-76
2021/09/30 04:21:11;;;;;;;28.17;14.50;;;;;;;1.72;100.00;101796.44;1757563;80;21108;-75
2021/09/30 04:23:40;;;;;;;28.10;14.10;;;;;;;1.75;100.00;101792.61;1754198;80;21068;-76
2021/09/30 04:26:08;;;;;;;48.75;14.95;;;;;;;1.71;100.00;101783.88;1753102;80;21483;-74
2021/09/30 04:28:35;;;;;;;28.20;13.75;;;;;;;1.80;100.00;101798.41;1753991;80;21074;-75
2021/09/30 04:31:03;;;;;;;34.27;14.75;;;;;;;1.84;100.00;101796.34;1751772;80;21092;-76
2021/09/30 04:33:32;;;;;;;28.07;14.90;;;;;;;1.93;100.00;101797.41;1751451;80;20991;-77
2021/09/30 04:35:58;;;;;;;34.20;14.93;;;;;;;2.01;100.00;101801.09;1753625;80;21031;-77
2021/09/30 04:38:25;;;;;;;21.27;11.43;;;;;;;2.08;100.00;101802.98;1752256;80;21567;-77
2021/09/30 04:40:52;;;;;;;24.50;14.25;;;;;;;2.19;100.00;101809.33;1762493;80;21165;-77
2021/09/30 04:43:19;;;;;;;24.32;13.25;;;;;;;2.29;100.00;101811.72;1717192;83;21097;-77
2021/09/30 04:45:48;;;;;;;28.95;13.48;;;;;;;2.38;100.00;101813.67;1709782;82;21075;-76
2021/09/30 04:48:16;;;;;;;28.62;13.05;;;;;;;2.47;100.00;101809.98;1760954;80;21048;-76
2021/09/30 04:50:44;;;;;;;26.73;12.55;;;;;;;2.55;100.00;101814.92;1758840;80;21064;-75
2021/09/30 04:53:12;;;;;;;29.57;14.20;;;;;;;2.66;100.00;101813.44;1771356;80;21499;-76
2021/09/30 04:55:40;;;;;;;27.15;12.73;;;;;;;2.77;100.00;101812.81;1756534;81;21131;-77
2021/09/30 04:58:09;;;;;;;29.75;14.83;;;;;;;2.86;100.00;101810.41;1756441;80;21081;-78
2021/09/30 05:00:37;;;;;;;35.07;14.90;;;;;;;3.00;100.00;101814.18;1756939;81;21543;-78
2021/09/30 05:03:12;;;;;;;36.20;15.60;;;;;;;3.14;100.00;101816.64;1755806;81;21556;-77
2021/09/30 05:05:38;;;;;;;32.70;15.38;;;;;;;3.31;100.00;101814.79;1767675;80;21049;-77
2021/09/30 05:08:05;;;;;;;49.38;15.60;;;;;;;3.47;100.00;101816.84;1778052;80;21003;-78
2021/09/30 05:10:34;;;;;;;37.10;14.87;;;;;;;3.63;100.00;101821.05;1741196;81;21151;-75
2021/09/30 05:13:17;;;;;;;35.08;15.88;;;;;;;3.74;100.00;101820.82;1770991;80;21040;-77
2021/09/30 05:15:38;;;;;;;39.20;14.73;;;;;;;3.86;100.00;101821.03;1783735;80;21133;-77
2021/09/30 05:18:10;;;;;;;27.45;13.25;;;;;;;4.01;100.00;101825.65;1755232;81;21064;-78
2021/09/30 05:20:40;;;;;;;37.78;14.65;;;;;;;4.19;100.00;101829.00;1718602;83;21077;-78
2021/09/30 05:23:10;;;;;;;43.65;17.40;;;;;;;4.33;100.00;101831.39;1718662;83;21065;-77
2021/09/30 05:25:37;;;;;;;32.35;16.25;;;;;;;4.47;100.00;101827.69;1686997;83;21046;-77
2021/09/30 05:28:04;;;;;;;31.55;13.50;;;;;;;4.62;100.00;101824.42;1727025;82;21501;-77
2021/09/30 05:30:31;;;;;;;36.70;18.17;;;;;;;4.77;100.00;101831.17;1761261;80;21087;-78
2021/09/30 05:32:59;;;;;;;37.65;17.10;;;;;;;4.98;100.00;101834.94;1776680;80;21040;-77
2021/09/30 05:35:30;;;;;;;44.67;18.53;;;;;;;5.16;100.00;101830.38;1757731;80;21053;-77
2021/09/30 05:37:57;;;;;;;42.98;18.62;;;;;;;5.32;100.00;101823.61;1764229;80;21036;-78
2021/09/30 05:40:24;;;;;;;60.88;19.98;;;;;;;5.51;100.00;101829.91;1782088;80;22214;-76
2021/09/30 05:42:53;;;;;;;56.30;21.60;;;;;;;5.67;100.00;101830.09;1769135;80;21063;-76
2021/09/30 05:45:20;;;;;;;52.58;21.82;;;;;;;5.85;100.00;101831.14;1782949;80;21081;-76
2021/09/30 05:47:47;;;;;;;61.23;23.90;;;;;;;6.03;100.00;101826.11;1785782;80;21045;-76
2021/09/30 05:50:15;;;;;;;73.37;26.13;;;;;;;6.20;100.00;101831.48;1785877;80;21033;-76
2021/09/30 05:52:47;;;;;;;70.08;26.33;;;;;;;6.36;100.00;101839.02;1769774;80;21220;-76
2021/09/30 05:55:18;;;;;;;64.60;24.10;;;;;;;6.53;100.00;101839.57;1752833;80;21139;-76
2021/09/30 05:57:45;;;;;;;84.25;27.75;;;;;;;6.67;100.00;101833.58;1740282;80;21092;-76
2021/09/30 06:16:35;;;;;;;100.85;30.57;;;;;;;7.62;95.14;101840.98;1764822;79;21572;-82
2021/09/30 06:19:03;;;;;;;107.35;33.02;;;;;;;7.75;93.13;101842.77;1758415;80;21073;-82
2021/09/30 06:21:33;;;;;;;90.92;31.27;;;;;;;7.87;92.63;101844.97;1771717;80;21108;-83
2021/09/30 06:23:59;;;;;;;69.07;26.60;;;;;;;8.00;91.95;101845.41;1749954;80;21570;-76
2021/09/30 06:26:28;;;;;;;61.35;23.32;;;;;;;8.11;90.95;101844.97;1770816;80;21509;-76
2021/09/30 06:28:56;;;;;;;52.70;22.98;;;;;;;8.25;88.40;101845.42;1773693;80;21136;-77
2021/09/30 06:31:23;;;;;;;45.05;20.57;;;;;;;8.42;86.98;101835.84;1767137;80;21105;-77
2021/09/30 06:33:56;;;;;;;53.50;21.27;;;;;;;8.61;86.54;101838.86;1719579;81;21030;-78
2021/09/30 06:36:37;;;;;;;40.85;18.73;;;;;;;8.82;85.45;101835.31;1753967;79;21116;-78
2021/09/30 06:39:07;;;;;;;45.40;19.60;;;;;;;9.02;83.37;101835.27;1776416;80;21086;-77
2021/09/30 06:41:37;;;;;;;41.15;19.07;;;;;;;9.25;83.16;101838.25;1718158;82;21123;-77
2021/09/30 06:44:22;;;;;;;47.00;17.80;;;;;;;9.43;82.83;101837.27;1774209;80;21844;-77
2021/09/30 06:47:06;;;;;;;29.55;15.90;;;;;;;9.64;79.11;101841.56;1776778;80;21222;-76
2021/09/30 06:49:34;;;;;;;35.28;16.07;;;;;;;9.82;78.07;101845.40;1773985;80;21595;-76
2021/09/30 06:52:06;;;;;;;36.03;15.32;;;;;;;10.00;76.82;101842.19;1713834;82;21005;-76
2021/09/30 06:54:32;;;;;;;29.37;15.10;;;;;;;10.14;75.26;101845.58;1719507;80;21060;-75
2021/09/30 06:57:06;;;;;;;28.60;14.30;;;;;;;10.25;75.65;101842.42;1767536;80;21036;-75
2021/09/30 06:59:53;;;;;;;31.50;12.30;;;;;;;10.43;73.08;101845.38;1776761;80;21080;-75
2021/09/30 07:02:41;;;;;;;37.28;14.80;;;;;;;10.68;73.11;101848.66;1771706;80;21040;-77
2021/09/30 07:05:25;;;;;;;49.42;13.35;;;;;;;10.86;70.11;101847.60;1706524;83;21140;-78
2021/09/30 07:08:01;;;;;;;23.90;10.45;;;;;;;10.94;70.17;101848.83;1715938;80;21116;-76
2021/09/30 07:10:28;;;;;;;18.95;9.65;;;;;;;11.07;69.17;101846.48;1761149;79;21808;-77
2021/09/30 07:12:56;;;;;;;23.90;10.43;;;;;;;11.16;66.28;101847.25;1753109;79;20958;-79
2021/09/30 07:15:24;;;;;;;17.65;7.15;;;;;;;11.23;68.86;101843.67;1754336;81;20952;-81
2021/09/30 07:17:50;;;;;;;14.45;7.83;;;;;;;11.20;63.73;101846.33;1746921;81;21626;-80
2021/09/30 07:20:17;;;;;;;19.92;9.63;;;;;;;11.16;67.63;101844.61;1738804;81;21100;-80
2021/09/30 07:22:44;;;;;;;18.52;8.58;;;;;;;11.16;67.68;101845.50;1741890;79;21119;-81
2021/09/30 07:25:11;;;;;;;16.12;8.78;;;;;;;11.18;69.98;101848.10;1741578;81;21105;-80
2021/09/30 07:27:38;;;;;;;20.12;10.18;;;;;;;11.24;69.12;101850.68;1749340;81;21018;-80
2021/09/30 07:30:06;;;;;;;21.37;9.68;;;;;;;11.33;69.21;101839.56;1748289;81;21105;-80
2021/09/30 07:32:36;;;;;;;18.95;8.78;;;;;;;11.38;66.72;101840.81;1742283;81;21073;-79
2021/09/30 07:35:04;;;;;;;15.83;8.95;;;;;;;11.40;66.72;101842.12;1748863;81;21081;-79
2021/09/30 07:37:30;;;;;;;10.98;8.30;;;;;;;11.40;67.17;101842.98;1734729;82;21061;-80
2021/09/30 07:39:58;;;;;;;12.73;7.87;;;;;;;11.41;64.97;101842.12;1735491;82;21061;-79
2021/09/30 07:42:26;;;;;;;16.05;8.53;;;;;;;11.35;62.68;101839.55;1735723;82;21049;-80
2021/09/30 07:44:53;;;;;;;16.55;7.87;;;;;;;11.25;63.04;101844.49;1734912;82;21065;-80
2021/09/30 07:47:19;;;;;;;13.55;7.92;;;;;;;11.12;62.04;101847.30;1738552;81;21471;-80
2021/09/30 07:49:46;;;;;;;13.50;7.00;;;;;;;10.97;62.56;101856.69;1738932;81;21085;-80
2021/09/30 07:52:12;;;;;;;20.50;7.50;;;;;;;10.87;62.69;101851.10;1751315;81;21072;-80
2021/09/30 07:54:41;;;;;;;17.90;9.70;;;;;;;10.81;64.32;101843.25;1752433;81;21418;-80
2021/09/30 07:57:10;;;;;;;15.05;8.28;;;;;;;10.80;64.58;101846.79;1752758;81;21057;-80
2021/09/30 07:59:36;;;;;;;12.80;8.15;;;;;;;10.82;64.85;101850.28;1741474;81;21104;-80
2021/09/30 08:02:04;;;;;;;13.05;6.15;;;;;;;10.84;65.19;101851.14;1762141;81;21053;-80
2021/09/30 08:04:30;;;;;;;13.03;7.40;;;;;;;10.87;64.72;101848.47;1747612;81;21014;-80
2021/09/30 08:06:59;;;;;;;12.55;6.83;;;;;;;10.78;65.17;101849.88;1739899;82;21016;-82
2021/09/30 08:09:25;;;;;;;11.33;6.42;;;;;;;10.68;63.95;101850.43;1737970;82;21007;-81
2021/09/30 08:11:54;;;;;;;12.13;6.28;;;;;;;10.67;65.45;101846.92;1745565;80;21528;-80
2021/09/30 08:14:22;;;;;;;9.28;6.67;;;;;;;10.75;64.36;101845.97;1751624;81;21081;-80
2021/09/30 08:16:49;;;;;;;11.57;5.97;;;;;;;10.79;62.35;101855.15;1753478;81;21077;-81
2021/09/30 08:19:17;;;;;;;12.75;7.30;;;;;;;10.68;60.11;101850.43;1753415;81;21086;-82
2021/09/30 08:21:44;;;;;;;17.95;7.47;;;;;;;10.46;60.43;101862.91;1741289;81;21509;-80
2021/09/30 08:24:16;;;;;;;14.90;7.35;;;;;;;10.31;61.38;101858.67;1750570;81;21500;-79
2021/09/30 08:26:43;;;;;;;13.15;7.42;;;;;;;10.28;62.73;101854.30;1744985;81;21089;-78
2021/09/30 08:29:10;;;;;;;15.05;7.08;;;;;;;10.34;63.23;101852.05;1756034;81;21581;-81
2021/09/30 08:31:36;;;;;;;14.70;7.45;;;;;;;10.39;62.10;101852.88;1739884;81;21070;-80
2021/09/30 08:34:03;;;;;;;24.05;8.05;;;;;;;10.46;63.83;101858.52;1751746;81;21092;-81
2021/09/30 08:36:31;;;;;;;15.23;9.05;;;;;;;10.54;63.61;101854.52;1765420;81;21198;-81
2021/09/30 08:38:58;;;;;;;22.42;9.08;;;;;;;10.58;61.41;101854.92;1764316;81;21101;-80
2021/09/30 08:41:25;;;;;;;12.07;6.80;;;;;;;10.54;61.89;101857.59;1760258;81;21059;-80
2021/09/30 08:43:52;;;;;;;13.40;7.45;;;;;;;10.48;63.29;101858.51;1741266;81;21096;-80
2021/09/30 08:46:19;;;;;;;15.28;8.45;;;;;;;10.50;61.88;101858.05;1744006;81;21545;-80
2021/09/30 08:48:47;;;;;;;15.70;7.50;;;;;;;10.55;61.48;101852.30;1745464;81;21041;-81
2021/09/30 08:51:15;;;;;;;15.75;8.28;;;;;;;10.56;63.06;101848.79;1736981;81;21045;-81
2021/09/30 08:53:41;;;;;;;12.73;7.92;;;;;;;10.61;62.25;101849.61;1735361;82;21344;-79
2021/09/30 08:56:09;;;;;;;11.50;7.15;;;;;;;10.73;63.67;101843.80;1735737;81;21148;-82
2021/09/30 08:58:38;;;;;;;10.70;7.37;;;;;;;10.81;60.55;101834.92;1736010;82;21057;-78
2021/09/30 09:01:08;;;;;;;14.58;7.65;;;;;;;10.78;59.49;101834.06;1736322;81;21074;-81
2021/09/30 09:03:40;;;;;;;13.30;8.03;;;;;;;10.70;60.40;101833.71;1735729;82;25273;-79
2021/09/30 09:06:10;;;;;;;12.37;7.95;;;;;;;10.70;61.42;101838.98;1744261;81;21113;-80
2021/09/30 09:08:36;;;;;;;15.53;7.85;;;;;;;10.74;60.84;101840.25;1737109;81;21675;-79
2021/09/30 09:11:08;;;;;;;13.65;8.00;;;;;;;10.81;60.66;101837.98;1736368;82;21077;-80
2021/09/30 09:13:36;;;;;;;13.98;9.15;;;;;;;10.91;61.25;101838.33;1757206;80;21053;-80
2021/09/30 09:16:04;;;;;;;16.90;9.25;;;;;;;11.01;59.87;101825.45;1737243;82;21045;-78
2021/09/30 09:18:42;;;;;;;11.03;8.03;;;;;;;11.04;59.97;101830.71;1737312;82;21070;-81
2021/09/30 09:21:15;;;;;;;12.60;9.38;;;;;;;11.14;60.14;101820.92;1737425;82;20998;-80
2021/09/30 09:23:59;;;;;;;17.75;7.53;;;;;;;11.31;59.08;101824.20;1737744;81;21057;-80
2021/09/30 09:26:33;;;;;;;16.10;8.65;;;;;;;11.47;61.27;101822.68;1736075;82;21081;-80
2021/09/30 09:29:13;;;;;;;16.55;8.75;;;;;;;11.61;59.42;101822.48;1735419;82;21513;-79
2021/09/30 09:31:46;;;;;;;12.03;8.95;;;;;;;11.66;57.73;101820.65;1735714;82;21128;-79
2021/09/30 09:34:27;;;;;;;15.10;9.43;;;;;;;11.87;56.27;101824.34;1735475;82;21101;-80
2021/09/30 09:37:18;;;;;;;15.58;8.70;;;;;;;11.97;56.99;101822.42;1755690;81;21120;-80
2021/09/30 09:39:47;;;;;;;12.23;8.05;;;;;;;12.43;54.46;101815.50;1751842;81;21903;-79
2021/09/30 09:42:20;;;;;;;12.95;8.03;;;;;;;12.68;56.53;101817.25;1745328;81;21560;-81
2021/09/30 09:44:59;;;;;;;15.72;8.70;;;;;;;12.78;54.17;101817.02;1766117;81;21041;-79
2021/09/30 09:47:35;;;;;;;18.90;8.53;;;;;;;12.99;52.87;101812.22;1743550;81;21080;-79
2021/09/30 09:50:22;;;;;;;16.65;8.28;;;;;;;13.55;50.69;101818.12;1734892;81;21084;-80
2021/09/30 09:52:58;;;;;;;12.63;8.15;;;;;;;14.13;51.17;101812.34;1748577;81;21081;-78
2021/09/30 09:55:37;;;;;;;15.50;8.10;;;;;;;14.89;48.10;101809.00;1741724;81;21014;-76
2021/09/30 09:58:16;;;;;;;12.60;7.65;;;;;;;15.09;47.16;101807.55;1734274;81;21267;-80
2021/09/30 10:01:01;;;;;;;15.37;8.03;;;;;;;14.95;45.94;101808.41;1759495;81;21766;-79
2021/09/30 10:03:33;;;;;;;11.60;7.67;;;;;;;14.96;46.30;101816.80;1748355;81;21152;-79
2021/09/30 10:06:04;;;;;;;14.43;7.53;;;;;;;15.44;48.40;101808.31;1730273;81;21105;-78
2021/09/30 10:08:32;;;;;;;10.75;6.58;;;;;;;16.26;44.72;101798.59;1756615;81;21030;-80
2021/09/30 10:10:59;;;;;;;12.55;7.25;;;;;;;16.85;41.69;101796.97;1752124;81;21065;-79
2021/09/30 10:13:27;;;;;;;10.93;6.95;;;;;;;16.76;41.09;101801.27;1742491;80;21057;-80
2021/09/30 10:15:55;;;;;;;10.18;8.13;;;;;;;16.51;40.69;101811.44;1751031;82;21068;-81
2021/09/30 10:18:25;;;;;;;13.68;7.87;;;;;;;16.32;41.22;101801.05;1750668;82;21107;-80
2021/09/30 10:20:57;;;;;;;9.70;7.53;;;;;;;16.55;40.51;101795.78;1751309;82;20987;-81
2021/09/30 10:23:28;;;;;;;;;;;;;;;17.14;41.04;101792.37;1753213;81;21017;-80
2021/09/30 10:27:22;;;;;;;11.05;7.95;;;;;;;17.91;38.60;101789.34;1815655;79;23326;-80
2021/09/30 10:29:49;;;;;;;9.58;7.42;;;;;;;18.20;37.76;101787.66;1778007;80;21000;-79
2021/09/30 10:32:19;;;;;;;9.85;7.70;;;;;;;18.05;35.84;101792.30;1757195;80;21136;-80
2021/09/30 10:34:54;;;;;;;10.63;7.10;;;;;;;18.09;36.64;101789.91;1743195;81;21021;-81
2021/09/30 10:37:30;;;;;;;13.55;8.30;;;;;;;17.87;36.33;101779.73;1679590;84;21703;-80
2021/09/30 10:40:19;;;;;;;13.10;7.85;;;;;;;18.08;37.08;101778.83;1671477;85;21056;-81
2021/09/30 10:42:56;;;;;;;11.10;7.83;;;;;;;18.35;36.29;101787.93;1671791;86;21080;-81
2021/09/30 10:45:41;;;;;;;9.05;7.42;;;;;;;18.14;35.95;101779.91;1685063;85;21206;-81
2021/09/30 10:48:34;;;;;;;9.58;7.22;;;;;;;18.01;37.68;101782.69;1683806;85;20974;-78
2021/09/30 10:51:12;;;;;;;9.05;6.60;;;;;;;18.11;36.87;101774.72;1684981;85;21565;-79
2021/09/30 10:53:51;;;;;;;12.37;7.78;;;;;;;18.42;35.36;101774.73;1684128;85;21658;-80
2021/09/30 10:56:38;;;;;;;10.58;7.60;;;;;;;18.32;34.96;101778.27;1685683;85;21555;-78
2021/09/30 10:59:19;;;;;;;11.63;7.08;;;;;;;18.27;35.93;101771.38;1696976;83;21178;-78
2021/09/30 11:01:52;;;;;;;12.37;7.42;;;;;;;18.10;35.90;101777.44;1694043;84;21088;-80
2021/09/30 11:04:19;;;;;;;10.20;6.97;;;;;;;17.90;37.78;101771.16;1723195;83;21096;-78
2021/09/30 11:07:15;;;;;;;11.83;7.53;;;;;;;17.99;35.47;101768.11;1723004;83;21077;-78
2021/09/30 11:09:42;;;;;;;10.55;7.10;;;;;;;17.73;36.33;101765.14;1722702;83;21079;-80
2021/09/30 11:12:11;;;;;;;10.93;7.92;;;;;;;17.38;36.28;101763.44;1696170;83;21130;-78
2021/09/30 11:14:55;;;;;;;10.00;8.00;;;;;;;17.33;36.77;101756.10;1725573;83;21006;-77
2021/09/30 11:17:39;;;;;;;15.98;7.65;;;;;;;17.32;37.40;101755.71;1725480;83;21505;-76
2021/09/30 11:20:32;;;;;;;10.18;7.08;;;;;;;17.64;36.54;101755.33;1690136;85;21073;-79
2021/09/30 11:22:59;;;;;;;9.75;7.03;;;;;;;17.78;37.99;101751.19;1691340;85;21540;-77
2021/09/30 11:26:05;;;;;;;11.83;7.75;;;;;;;17.76;37.04;101746.39;1672588;84;21584;-79
2021/09/30 11:28:32;;;;;;;9.43;7.47;;;;;;;17.78;36.45;101748.97;1745504;82;20991;-78
2021/09/30 11:31:33;;;;;;;10.68;7.47;;;;;;;17.71;36.55;101741.69;1736244;82;21049;-79
2021/09/30 11:34:01;;;;;;;11.03;8.48;;;;;;;17.54;36.38;101738.39;1734117;82;21667;-79
2021/09/30 11:36:34;;;;;;;14.80;8.35;;;;;;;17.26;36.94;101737.30;1733708;82;21065;-78
2021/09/30 11:39:04;;;;;;;10.90;8.13;;;;;;;17.26;37.73;101731.98;1737333;82;21065;-77
2021/09/30 11:41:33;;;;;;;14.47;7.58;;;;;;;17.49;37.95;101737.72;1735359;82;21040;-79
2021/09/30 11:44:00;;;;;;;15.75;8.40;;;;;;;17.66;36.23;101741.02;1707139;84;21030;-79
2021/09/30 11:46:36;;;;;;;15.20;8.18;;;;;;;17.45;37.26;101731.25;1728921;82;21557;-80
2021/09/30 11:49:07;;;;;;;12.82;7.95;;;;;;;17.43;36.96;101736.62;1723155;82;21349;-79
2021/09/30 11:51:40;;;;;;;11.90;8.45;;;;;;;17.35;37.46;101732.95;1712371;83;21125;-77
2021/09/30 11:54:11;;;;;;;15.40;8.05;;;;;;;17.24;35.71;101723.19;1730923;82;21069;-80
2021/09/30 11:56:45;;;;;;;11.83;7.83;;;;;;;17.15;36.15;101728.40;1742527;82;21100;-78
2021/09/30 11:59:11;;;;;;;12.65;7.95;;;;;;;17.08;36.75;101724.72;1741921;81;21057;-79
2021/09/30 12:01:45;;;;;;;12.85;8.73;;;;;;;17.11;37.03;101727.25;1718427;82;21109;-78
2021/09/30 12:04:31;;;;;;;16.02;11.30;;;;;;;17.23;36.36;101722.80;1705518;84;21548;-80
2021/09/30 12:06:57;;;;;;;12.28;7.97;;;;;;;17.28;37.81;101722.14;1706189;84;21033;-79
2021/09/30 12:09:24;;;;;;;12.90;7.62;;;;;;;17.29;38.65;101711.87;1705946;84;21109;-79
2021/09/30 12:11:56;;;;;;;13.03;7.75;;;;;;;17.38;38.81;101711.52;1706685;84;21166;-79
2021/09/30 12:14:36;;;;;;;15.93;8.40;;;;;;;17.37;38.77;101712.92;1707261;83;21058;-79
2021/09/30 12:17:07;;;;;;;13.65;9.08;;;;;;;17.37;36.81;101704.47;1687044;84;21054;-78
2021/09/30 12:19:37;;;;;;;14.07;8.90;;;;;;;17.34;38.08;101703.23;1717421;82;21081;-79
2021/09/30 12:22:13;;;;;;;12.75;9.23;;;;;;;17.25;37.52;101700.94;1743108;82;21025;-78
2021/09/30 12:24:45;;;;;;;19.85;9.28;;;;;;;17.02;37.04;101698.33;1743398;82;21520;-79
2021/09/30 12:27:12;;;;;;;16.30;8.48;;;;;;;16.93;37.20;101688.46;1723167;82;21074;-78
2021/09/30 12:29:47;;;;;;;15.63;9.60;;;;;;;16.90;37.81;101691.22;1729842;82;21473;-77
2021/09/30 12:32:19;;;;;;;16.75;8.60;;;;;;;16.86;37.79;101694.92;1744567;80;21038;-79
2021/09/30 12:35:10;;;;;;;10.95;7.42;;;;;;;16.72;38.13;101681.25;1743113;82;21598;-78
2021/09/30 12:37:40;;;;;;;13.78;9.00;;;;;;;16.53;40.00;101687.27;1733426;82;21057;-79
2021/09/30 12:40:26;;;;;;;15.53;8.75;;;;;;;16.32;39.19;101687.59;1716228;83;21049;-79
2021/09/30 12:43:08;;;;;;;11.45;8.58;;;;;;;16.23;38.87;101688.39;1711787;83;20986;-78
2021/09/30 12:45:40;;;;;;;10.88;7.65;;;;;;;16.26;39.04;101685.14;1709580;83;21076;-79
2021/09/30 12:48:11;;;;;;;10.18;5.85;;;;;;;16.35;38.39;101680.83;1710353;83;21076;-78
2021/09/30 12:50:51;;;;;;;12.85;8.25;;;;;;;16.34;39.17;101676.91;1727305;82;21124;-79
2021/09/30 12:53:19;;;;;;;14.03;9.03;;;;;;;16.36;39.18;101671.08;1738943;81;21049;-79
2021/09/30 12:55:48;;;;;;;15.18;7.95;;;;;;;16.37;39.25;101675.46;1742859;82;21795;-79
2021/09/30 12:58:37;;;;;;;13.18;9.23;;;;;;;16.28;40.32;101670.48;1742795;81;21013;-79
2021/09/30 13:01:35;;;;;;;15.60;8.80;;;;;;;16.10;40.83;101674.22;1742838;82;21060;-78
2021/09/30 13:04:25;;;;;;;13.40;8.58;;;;;;;15.83;41.44;101669.88;1743364;82;21030;-77
2021/09/30 13:06:57;;;;;;;12.50;8.63;;;;;;;15.70;39.81;101668.94;1737764;82;21588;-79
2021/09/30 13:09:36;;;;;;;12.50;7.62;;;;;;;15.73;40.67;101662.22;1742573;82;21953;-79
2021/09/30 13:12:15;;;;;;;11.70;7.53;;;;;;;15.84;41.33;101656.52;1736595;82;21022;-80
2021/09/30 13:14:49;;;;;;;15.90;8.68;;;;;;;15.99;42.41;101652.47;1718612;83;21108;-79
2021/09/30 13:17:19;;;;;;;15.28;8.78;;;;;;;16.14;39.99;101650.58;1718322;83;21061;-79
2021/09/30 13:19:54;;;;;;;18.45;8.75;;;;;;;16.10;38.98;101651.63;1726825;82;21022;-78
2021/09/30 13:22:26;;;;;;;15.55;8.48;;;;;;;15.99;41.92;101641.84;1732954;82;21145;-79
2021/09/30 13:24:53;;;;;;;;;;;;;;;15.94;39.50;101647.32;1669848;85;21108;-82
2021/09/30 13:27:26;;;;;;;13.88;8.45;;;;;;;15.90;39.40;101639.52;1657158;85;20233;-79
2021/09/30 13:29:53;;;;;;;14.18;7.72;;;;;;;15.77;39.09;101637.73;1665733;85;21081;-79
2021/09/30 13:32:20;;;;;;;16.40;8.93;;;;;;;15.68;39.68;101638.88;1699750;84;21093;-80
2021/09/30 13:34:48;;;;;;;16.67;8.78;;;;;;;15.76;39.83;101624.49;1673931;84;21545;-78
2021/09/30 13:37:14;;;;;;;23.57;9.48;;;;;;;15.81;39.53;101627.88;1667460;85;21122;-78
2021/09/30 13:39:41;;;;;;;15.28;9.75;;;;;;;15.73;39.63;101635.66;1714182;83;21148;-80
2021/09/30 13:42:16;;;;;;;18.67;10.93;;;;;;;15.59;40.55;101632.55;1728513;82;21151;-78
2021/09/30 13:44:44;;;;;;;10.98;7.22;;;;;;;15.52;40.58;101633.22;1690109;84;21720;-79
2021/09/30 13:47:13;;;;;;;11.90;7.28;;;;;;;15.47;43.34;101626.34;1734551;82;21108;-79
2021/09/30 13:49:39;;;;;;;15.15;9.45;;;;;;;15.38;42.95;101622.20;1734221;82;21575;-77
2021/09/30 13:52:06;;;;;;;16.12;8.13;;;;;;;15.24;42.75;101625.30;1719038;82;21077;-79
2021/09/30 13:54:32;;;;;;;12.20;8.25;;;;;;;15.09;41.43;101625.80;1710204;83;20990;-78
2021/09/30 13:57:00;;;;;;;19.17;9.30;;;;;;;14.92;42.36;101624.15;1684244;83;21596;-78
2021/09/30 13:59:27;;;;;;;18.30;9.73;;;;;;;14.79;42.43;101623.22;1726261;82;21048;-79
2021/09/30 14:01:53;;;;;;;14.95;8.38;;;;;;;14.67;42.98;101615.61;1738685;82;21026;-77
2021/09/30 14:04:19;;;;;;;17.27;8.45;;;;;;;14.61;41.93;101615.82;1713815;82;21136;-78
2021/09/30 14:06:48;;;;;;;16.05;8.20;;;;;;;14.53;42.45;101616.46;1727832;82;21144;-80
2021/09/30 14:09:15;;;;;;;20.45;9.28;;;;;;;14.47;42.61;101614.88;1733442;82;21021;-77
2021/09/30 14:11:43;;;;;;;14.60;8.48;;;;;;;14.44;44.26;101612.30;1718946;82;21124;-78
2021/09/30 14:14:11;;;;;;;16.77;10.50;;;;;;;14.41;43.04;101613.25;1740141;82;21073;-81
2021/09/30 14:16:37;;;;;;;13.62;8.05;;;;;;;14.31;42.80;101609.16;1723502;82;21041;-80
2021/09/30 14:19:06;;;;;;;15.65;7.45;;;;;;;14.19;42.73;101608.16;1719270;82;21050;-79
2021/09/30 14:21:32;;;;;;;12.15;8.08;;;;;;;14.08;42.99;101608.48;1722425;81;21057;-83
2021/09/30 14:24:01;;;;;;;13.65;7.95;;;;;;;14.01;43.86;101606.45;1712792;82;21824;-79
2021/09/30 14:26:29;;;;;;;12.20;6.45;;;;;;;13.96;43.85;101614.96;1724370;82;21077;-80
2021/09/30 14:28:57;;;;;;;20.02;8.03;;;;;;;13.90;44.14;101610.31;1734588;81;21143;-81